Time,TemperatureF,DewpointF,PressureIn,WindDirection,WindDirectionDegrees,WindSpeedMPH,WindSpeedGustMPH,Humidity,HourlyPrecipIn,Conditions,Clouds,dailyrainin,SoftwareType,DateUTC
2013-05-13 00:01:00,62.0,27.0,-100.00,South,180,9.0,11.0,26,-99.99,,,-99.99,,2013-05-13 06:01:00,
2013-05-13 00:11:00,63.0,28.0,-100.00,SSW,195,6.0,10.0,25,-99.99,,,-99.99,,2013-05-13 06:11:00,
2013-05-13 00:21:00,63.0,27.0,-100.00,SSW,205,7.0,11.0,25,-99.99,,,-99.99,,2013-05-13 06:21:00,
2013-05-13 00:31:00,65.0,28.0,-100.00,WSW,240,11.0,12.0,24,-99.99,,,-99.99,,2013-05-13 06:31:00,
2013-05-13 00:42:00,66.0,28.0,-100.00,SW,230,16.0,17.0,23,-99.99,,,-99.99,,2013-05-13 06:42:00,
2013-05-13 00:52:00,66.0,28.0,-100.00,SW,225,17.0,19.0,23,-99.99,,,-99.99,,2013-05-13 06:52:00,
2013-05-13 01:01:00,65.0,27.0,-100.00,SW,220,19.0,21.0,23,-99.99,,,-99.99,,2013-05-13 07:01:00,
2013-05-13 01:11:00,65.0,27.0,-100.00,SW,220,20.0,23.0,24,-99.99,,,-99.99,,2013-05-13 07:11:00,
2013-05-13 01:21:00,64.0,27.0,-100.00,SW,220,16.0,22.0,24,-99.99,,,-99.99,,2013-05-13 07:21:00,
2013-05-13 01:31:00,64.0,27.0,-100.00,SW,230,12.0,16.0,24,-99.99,,,-99.99,,2013-05-13 07:31:00,
2013-05-13 01:41:00,67.0,28.0,-100.00,West,260,10.0,14.0,22,-99.99,,,-99.99,,2013-05-13 07:41:00,
2013-05-13 01:51:00,67.0,27.0,-100.00,WSW,250,10.0,13.0,22,-99.99,,,-99.99,,2013-05-13 07:51:00,
2013-05-13 02:01:00,67.0,28.0,-100.00,WSW,255,12.0,16.0,22,-99.99,,,-99.99,,2013-05-13 08:01:00,
2013-05-13 02:11:00,67.0,27.0,-100.00,WSW,255,10.0,14.0,22,-99.99,,,-99.99,,2013-05-13 08:11:00,
2013-05-13 02:21:00,67.0,27.0,-100.00,WSW,255,11.0,16.0,22,-99.99,,,-99.99,,2013-05-13 08:21:00,
2013-05-13 02:31:00,67.0,27.0,-100.00,West,265,11.0,14.0,22,-99.99,,,-99.99,,2013-05-13 08:31:00,
2013-05-13 02:41:00,67.0,27.0,-100.00,WSW,255,11.0,14.0,22,-99.99,,,-99.99,,2013-05-13 08:41:00,
2013-05-13 02:51:00,66.0,26.0,-100.00,NW,325,4.0,7.0,22,-99.99,,,-99.99,,2013-05-13 08:51:00,
2013-05-13 03:01:00,65.0,26.0,-100.00,NW,310,2.0,6.0,22,-99.99,,,-99.99,,2013-05-13 09:01:00,
2013-05-13 03:11:00,65.0,26.0,-100.00,SSW,195,2.0,4.0,23,-99.99,,,-99.99,,2013-05-13 09:11:00,
2013-05-13 03:21:00,64.0,26.0,-100.00,SW,230,3.0,7.0,23,-99.99,,,-99.99,,2013-05-13 09:21:00,
2013-05-13 03:32:00,65.0,26.0,-100.00,WSW,250,9.0,11.0,23,-99.99,,,-99.99,,2013-05-13 09:32:00,
2013-05-13 03:42:00,65.0,27.0,-100.00,WSW,255,11.0,17.0,23,-99.99,,,-99.99,,2013-05-13 09:42:00,
2013-05-13 03:52:00,66.0,27.0,-100.00,WSW,245,14.0,17.0,23,-99.99,,,-99.99,,2013-05-13 09:52:00,
2013-05-13 04:02:00,65.0,26.0,-100.00,WSW,255,16.0,19.0,22,-99.99,,,-99.99,,2013-05-13 10:02:00,
2013-05-13 04:12:00,66.0,26.0,-100.00,WSW,250,15.0,19.0,22,-99.99,,,-99.99,,2013-05-13 10:12:00,
2013-05-13 04:22:00,67.0,27.0,-100.00,WSW,245,17.0,22.0,21,-99.99,,,-99.99,,2013-05-13 10:22:00,
2013-05-13 04:32:00,67.0,27.0,-100.00,WSW,250,15.0,21.0,21,-99.99,,,-99.99,,2013-05-13 10:32:00,
2013-05-13 04:42:00,67.0,26.0,-100.00,WSW,255,17.0,21.0,21,-99.99,,,-99.99,,2013-05-13 10:42:00,
2013-05-13 04:52:00,68.0,27.0,-100.00,WSW,250,17.0,21.0,21,-99.99,,,-99.99,,2013-05-13 10:52:00,
2013-05-13 05:02:00,67.0,26.0,-100.00,WSW,245,19.0,24.0,21,-99.99,,,-99.99,,2013-05-13 11:02:00,
2013-05-13 05:12:00,67.0,26.0,-100.00,WSW,240,17.0,22.0,21,-99.99,,,-99.99,,2013-05-13 11:12:00,
2013-05-13 05:21:00,67.0,26.0,-100.00,WSW,240,18.0,23.0,21,-99.99,,,-99.99,,2013-05-13 11:21:00,
2013-05-13 05:32:00,67.0,26.0,-100.00,WSW,250,15.0,21.0,21,-99.99,,,-99.99,,2013-05-13 11:32:00,
2013-05-13 05:41:00,67.0,26.0,-100.00,West,260,10.0,18.0,21,-99.99,,,-99.99,,2013-05-13 11:41:00,
2013-05-13 05:51:00,65.0,25.0,-100.00,WNW,290,8.0,12.0,22,-99.99,,,-99.99,,2013-05-13 11:51:00,
2013-05-13 06:01:00,63.0,25.0,-100.00,NW,315,9.0,11.0,23,-99.99,,,-99.99,,2013-05-13 12:01:00,
2013-05-13 06:11:00,65.0,26.0,-100.00,West,260,10.0,17.0,23,-99.99,,,-99.99,,2013-05-13 12:11:00,
2013-05-13 06:21:00,67.0,27.0,-100.00,WSW,245,19.0,22.0,21,-99.99,,,-99.99,,2013-05-13 12:21:00,
2013-05-13 06:32:00,67.0,27.0,-100.00,WSW,250,19.0,26.0,21,-99.99,,,-99.99,,2013-05-13 12:32:00,
2013-05-13 06:41:00,67.0,27.0,-100.00,WSW,245,19.0,24.0,21,-99.99,,,-99.99,,2013-05-13 12:41:00,
2013-05-13 06:51:00,67.0,27.0,-100.00,SW,235,20.0,24.0,21,-99.99,,,-99.99,,2013-05-13 12:51:00,
2013-05-13 07:01:00,67.0,27.0,-100.00,SW,235,18.0,23.0,21,-99.99,,,-99.99,,2013-05-13 13:01:00,
2013-05-13 07:11:00,67.0,26.0,-100.00,SW,230,21.0,25.0,21,-99.99,,,-99.99,,2013-05-13 13:11:00,
2013-05-13 07:21:00,67.0,27.0,-100.00,WSW,240,22.0,26.0,21,-99.99,,,-99.99,,2013-05-13 13:21:00,
2013-05-13 07:31:00,67.0,27.0,-100.00,WSW,240,21.0,26.0,21,-99.99,,,-99.99,,2013-05-13 13:31:00,
2013-05-13 07:41:00,68.0,27.0,-100.00,WSW,240,17.0,22.0,21,-99.99,,,-99.99,,2013-05-13 13:41:00,
2013-05-13 07:51:00,68.0,27.0,-100.00,WSW,245,17.0,21.0,21,-99.99,,,-99.99,,2013-05-13 13:51:00,
2013-05-13 08:01:00,68.0,28.0,-100.00,WSW,250,14.0,20.0,21,-99.99,,,-99.99,,2013-05-13 14:01:00,
2013-05-13 08:11:00,70.0,29.0,-100.00,WSW,245,13.0,17.0,21,-99.99,,,-99.99,,2013-05-13 14:11:00,
2013-05-13 08:21:00,72.0,30.0,-100.00,WSW,255,12.0,16.0,21,-99.99,,,-99.99,,2013-05-13 14:21:00,
2013-05-13 08:31:00,72.0,30.0,-100.00,WSW,245,11.0,14.0,21,-99.99,,,-99.99,,2013-05-13 14:31:00,
2013-05-13 08:41:00,72.0,30.0,-100.00,West,260,11.0,12.0,21,-99.99,,,-99.99,,2013-05-13 14:41:00,
2013-05-13 08:51:00,72.0,30.0,-100.00,West,260,7.0,11.0,21,-99.99,,,-99.99,,2013-05-13 14:51:00,
2013-05-13 09:01:00,75.0,30.0,-100.00,West,265,8.0,9.0,19,-99.99,,,-99.99,,2013-05-13 15:01:00,
2013-05-13 09:11:00,76.0,30.0,-100.00,WNW,295,4.0,9.0,18,-99.99,,,-99.99,,2013-05-13 15:11:00,
2013-05-13 09:21:00,77.0,31.0,-100.00,NNW,335,7.0,9.0,18,-99.99,,,-99.99,,2013-05-13 15:21:00,
2013-05-13 09:31:00,77.0,30.0,-100.00,NNW,330,6.0,11.0,17,-99.99,,,-99.99,,2013-05-13 15:31:00,
2013-05-13 09:42:00,78.0,30.0,-100.00,WNW,295,6.0,10.0,17,-99.99,,,-99.99,,2013-05-13 15:42:00,
2013-05-13 09:52:00,78.0,30.0,-100.00,NW,305,7.0,11.0,17,-99.99,,,-99.99,,2013-05-13 15:52:00,
2013-05-13 10:03:00,78.0,30.0,-100.00,West,275,4.0,12.0,17,-99.99,,,-99.99,,2013-05-13 16:03:00,
2013-05-13 10:11:00,79.0,29.0,-100.00,NW,305,3.0,10.0,16,-99.99,,,-99.99,,2013-05-13 16:11:00,
2013-05-13 10:21:00,77.0,28.0,-100.00,NNW,345,7.0,10.0,16,-99.99,,,-99.99,,2013-05-13 16:21:00,
2013-05-13 10:33:00,79.0,30.0,-100.00,WNW,290,4.0,11.0,17,-99.99,,,-99.99,,2013-05-13 16:33:00,
2013-05-13 10:42:00,80.0,30.0,-100.00,West,270,9.0,14.0,16,-99.99,,,-99.99,,2013-05-13 16:42:00,
2013-05-13 10:52:00,79.0,28.0,-100.00,WNW,300,9.0,17.0,15,-99.99,,,-99.99,,2013-05-13 16:52:00,
2013-05-13 11:02:00,78.0,28.0,-100.00,West,270,10.0,19.0,15,-99.99,,,-99.99,,2013-05-13 17:02:00,
2013-05-13 11:12:00,79.0,29.0,-100.00,NNW,330,6.0,13.0,16,-99.99,,,-99.99,,2013-05-13 17:12:00,
2013-05-13 11:21:00,79.0,29.0,-100.00,WSW,240,7.0,16.0,15,-99.99,,,-99.99,,2013-05-13 17:21:00,
2013-05-13 11:32:00,79.0,28.0,-100.00,NNW,330,10.0,21.0,15,-99.99,,,-99.99,,2013-05-13 17:32:00,
2013-05-13 11:41:00,79.0,27.0,-100.00,SW,230,6.0,17.0,15,-99.99,,,-99.99,,2013-05-13 17:41:00,
2013-05-13 11:54:00,83.0,29.0,-100.00,WNW,300,3.0,7.0,14,-99.99,,,-99.99,,2013-05-13 17:54:00,
2013-05-13 12:03:00,79.0,26.0,-100.00,NNW,340,12.0,17.0,14,-99.99,,,-99.99,,2013-05-13 18:03:00,
2013-05-13 12:12:00,78.0,26.0,-100.00,NNW,330,6.0,13.0,15,-99.99,,,-99.99,,2013-05-13 18:12:00,
2013-05-13 12:22:00,79.0,27.0,-100.00,SW,215,9.0,17.0,14,-99.99,,,-99.99,,2013-05-13 18:22:00,
2013-05-13 12:32:00,79.0,27.0,-100.00,WSW,245,17.0,23.0,14,-99.99,,,-99.99,,2013-05-13 18:32:00,
2013-05-13 12:42:00,77.0,25.0,-100.00,West,260,14.0,17.0,14,-99.99,,,-99.99,,2013-05-13 18:42:00,
2013-05-13 12:51:00,77.0,26.0,-100.00,WSW,250,15.0,20.0,15,-99.99,,,-99.99,,2013-05-13 18:51:00,
2013-05-13 13:01:00,79.0,27.0,-100.00,SW,225,12.0,21.0,14,-99.99,,,-99.99,,2013-05-13 19:01:00,
2013-05-13 13:11:00,78.0,25.0,-100.00,SW,215,16.0,24.0,14,-99.99,,,-99.99,,2013-05-13 19:11:00,
2013-05-13 13:21:00,77.0,26.0,-100.00,WSW,245,14.0,24.0,15,-99.99,,,-99.99,,2013-05-13 19:21:00,
2013-05-13 13:32:00,80.0,27.0,-100.00,SW,235,18.0,26.0,14,-99.99,,,-99.99,,2013-05-13 19:32:00,
2013-05-13 13:43:00,81.0,28.0,-100.00,SW,225,24.0,37.0,14,-99.99,,,-99.99,,2013-05-13 19:43:00,
2013-05-13 13:52:00,80.0,26.0,-100.00,WSW,255,22.0,35.0,13,-99.99,,,-99.99,,2013-05-13 19:52:00,
2013-05-13 14:01:00,80.0,26.0,-100.00,WSW,245,21.0,27.0,13,-99.99,,,-99.99,,2013-05-13 20:01:00,
2013-05-13 14:11:00,81.0,27.0,-100.00,West,265,14.0,25.0,13,-99.99,,,-99.99,,2013-05-13 20:11:00,
2013-05-13 14:23:00,80.0,26.0,-100.00,WSW,245,22.0,32.0,13,-99.99,,,-99.99,,2013-05-13 20:23:00,
2013-05-13 14:33:00,80.0,25.0,-100.00,WSW,255,25.0,34.0,13,-99.99,,,-99.99,,2013-05-13 20:33:00,
2013-05-13 14:44:00,80.0,24.0,-100.00,WSW,245,24.0,34.0,12,-99.99,,,-99.99,,2013-05-13 20:44:00,
2013-05-13 14:53:00,81.0,25.0,-100.00,West,265,17.0,30.0,12,-99.99,,,-99.99,,2013-05-13 20:53:00,
2013-05-13 15:02:00,81.0,25.0,-100.00,West,270,24.0,32.0,12,-99.99,,,-99.99,,2013-05-13 21:02:00,
2013-05-13 15:14:00,81.0,26.0,-100.00,WSW,250,14.0,24.0,13,-99.99,,,-99.99,,2013-05-13 21:14:00,
2013-05-13 15:22:00,81.0,26.0,-100.00,West,260,16.0,27.0,13,-99.99,,,-99.99,,2013-05-13 21:22:00,
2013-05-13 15:33:00,81.0,26.0,-100.00,SW,230,16.0,24.0,13,-99.99,,,-99.99,,2013-05-13 21:33:00,
2013-05-13 15:43:00,80.0,25.0,-100.00,WSW,245,19.0,29.0,13,-99.99,,,-99.99,,2013-05-13 21:43:00,
2013-05-13 15:52:00,81.0,24.0,-100.00,WSW,240,10.0,27.0,12,-99.99,,,-99.99,,2013-05-13 21:52:00,
2013-05-13 16:02:00,81.0,25.0,-100.00,WSW,240,21.0,30.0,12,-99.99,,,-99.99,,2013-05-13 22:02:00,
2013-05-13 16:12:00,81.0,24.0,-100.00,West,265,14.0,30.0,12,-99.99,,,-99.99,,2013-05-13 22:12:00,
2013-05-13 16:22:00,81.0,25.0,-100.00,West,260,23.0,31.0,12,-99.99,,,-99.99,,2013-05-13 22:22:00,
2013-05-13 16:32:00,81.0,24.0,-100.00,SW,230,25.0,32.0,12,-99.99,,,-99.99,,2013-05-13 22:32:00,
2013-05-13 16:42:00,81.0,25.0,-100.00,WSW,240,21.0,36.0,12,-99.99,,,-99.99,,2013-05-13 22:42:00,
2013-05-13 16:52:00,79.0,23.0,-100.00,SW,230,24.0,30.0,12,-99.99,,,-99.99,,2013-05-13 22:52:00,
2013-05-13 17:01:00,81.0,24.0,-100.00,SW,215,21.0,27.0,12,-99.99,,,-99.99,,2013-05-13 23:01:00,
2013-05-13 17:12:00,80.0,24.0,-100.00,SW,235,24.0,32.0,12,-99.99,,,-99.99,,2013-05-13 23:12:00,
2013-05-13 17:23:00,80.0,24.0,-100.00,WSW,255,21.0,28.0,12,-99.99,,,-99.99,,2013-05-13 23:23:00,
2013-05-13 17:33:00,80.0,24.0,-100.00,SW,230,22.0,28.0,12,-99.99,,,-99.99,,2013-05-13 23:33:00,
2013-05-13 17:42:00,81.0,25.0,-100.00,WSW,250,16.0,31.0,12,-99.99,,,-99.99,,2013-05-13 23:42:00,
2013-05-13 17:53:00,80.0,24.0,-100.00,SW,225,22.0,28.0,12,-99.99,,,-99.99,,2013-05-13 23:53:00,
2013-05-13 18:02:00,80.0,25.0,-100.00,WSW,240,12.0,29.0,13,-99.99,,,-99.99,,2013-05-14 00:02:00,
2013-05-13 18:12:00,80.0,25.0,-100.00,WSW,255,17.0,24.0,13,-99.99,,,-99.99,,2013-05-14 00:12:00,
2013-05-13 18:22:00,79.0,24.0,-100.00,WSW,245,14.0,21.0,13,-99.99,,,-99.99,,2013-05-14 00:22:00,
2013-05-13 18:31:00,79.0,24.0,-100.00,WSW,245,15.0,23.0,13,-99.99,,,-99.99,,2013-05-14 00:31:00,
2013-05-13 18:41:00,79.0,24.0,-100.00,West,265,16.0,23.0,13,-99.99,,,-99.99,,2013-05-14 00:41:00,
2013-05-13 18:51:00,79.0,24.0,-100.00,WSW,250,17.0,24.0,13,-99.99,,,-99.99,,2013-05-14 00:51:00,
2013-05-13 19:01:00,78.0,24.0,-100.00,SW,235,17.0,24.0,13,-99.99,,,-99.99,,2013-05-14 01:01:00,
2013-05-13 19:11:00,76.0,24.0,-100.00,SW,225,17.0,24.0,14,-99.99,,,-99.99,,2013-05-14 01:11:00,
2013-05-13 19:21:00,76.0,24.0,-100.00,SW,220,20.0,27.0,14,-99.99,,,-99.99,,2013-05-14 01:21:00,
2013-05-13 19:31:00,75.0,24.0,-100.00,SW,225,22.0,28.0,15,-99.99,,,-99.99,,2013-05-14 01:31:00,
2013-05-13 19:43:00,75.0,24.0,-100.00,SW,220,23.0,29.0,15,-99.99,,,-99.99,,2013-05-14 01:43:00,
2013-05-13 19:52:00,75.0,24.0,-100.00,SW,220,19.0,30.0,15,-99.99,,,-99.99,,2013-05-14 01:52:00,
2013-05-13 20:01:00,75.0,24.0,-100.00,SW,225,19.0,26.0,15,-99.99,,,-99.99,,2013-05-14 02:01:00,
2013-05-13 20:11:00,74.0,24.0,-100.00,SW,230,18.0,29.0,15,-99.99,,,-99.99,,2013-05-14 02:11:00,
2013-05-13 20:21:00,73.0,24.0,-100.00,SW,230,16.0,23.0,15,-99.99,,,-99.99,,2013-05-14 02:21:00,
2013-05-13 20:31:00,74.0,24.0,-100.00,SW,235,22.0,26.0,15,-99.99,,,-99.99,,2013-05-14 02:31:00,
2013-05-13 20:42:00,72.0,24.0,-100.00,SW,225,17.0,22.0,16,-99.99,,,-99.99,,2013-05-14 02:42:00,
2013-05-13 20:51:00,71.0,23.0,-100.00,SW,220,18.0,23.0,16,-99.99,,,-99.99,,2013-05-14 02:51:00,
2013-05-13 21:01:00,71.0,23.0,-100.00,SW,220,19.0,22.0,16,-99.99,,,-99.99,,2013-05-14 03:01:00,
2013-05-13 21:11:00,70.0,23.0,-100.00,SW,220,19.0,22.0,17,-99.99,,,-99.99,,2013-05-14 03:11:00,
2013-05-13 21:21:00,69.0,24.0,-100.00,SW,225,17.0,21.0,17,-99.99,,,-99.99,,2013-05-14 03:21:00,
2013-05-13 21:32:00,69.0,24.0,-100.00,SW,220,17.0,19.0,17,-99.99,,,-99.99,,2013-05-14 03:32:00,
2013-05-13 21:42:00,68.0,24.0,-100.00,SW,230,16.0,18.0,18,-99.99,,,-99.99,,2013-05-14 03:42:00,
2013-05-13 21:52:00,69.0,24.0,-100.00,SW,235,16.0,18.0,18,-99.99,,,-99.99,,2013-05-14 03:52:00,
2013-05-13 22:02:00,69.0,24.0,-100.00,SW,230,16.0,17.0,18,-99.99,,,-99.99,,2013-05-14 04:02:00,
2013-05-13 22:12:00,68.0,24.0,-100.00,SW,215,16.0,19.0,18,-99.99,,,-99.99,,2013-05-14 04:12:00,
2013-05-13 22:22:00,68.0,24.0,-100.00,SW,225,16.0,21.0,19,-99.99,,,-99.99,,2013-05-14 04:22:00,
2013-05-13 22:32:00,68.0,24.0,-100.00,SW,225,14.0,16.0,19,-99.99,,,-99.99,,2013-05-14 04:32:00,
2013-05-13 22:42:00,68.0,24.0,-100.00,SW,235,14.0,15.0,19,-99.99,,,-99.99,,2013-05-14 04:42:00,
2013-05-13 22:52:00,68.0,24.0,-100.00,SW,230,16.0,16.0,19,-99.99,,,-99.99,,2013-05-14 04:52:00,
2013-05-13 23:01:00,67.0,24.0,-100.00,SW,220,16.0,17.0,19,-99.99,,,-99.99,,2013-05-14 05:01:00,
2013-05-13 23:11:00,66.0,24.0,-100.00,SW,215,16.0,17.0,19,-99.99,,,-99.99,,2013-05-14 05:11:00,
2013-05-13 23:21:00,67.0,24.0,-100.00,SW,215,16.0,17.0,19,-99.99,,,-99.99,,2013-05-14 05:21:00,
2013-05-13 23:32:00,67.0,25.0,-100.00,SW,220,17.0,17.0,20,-99.99,,,-99.99,,2013-05-14 05:32:00,
2013-05-13 23:42:00,68.0,25.0,-100.00,SW,215,16.0,21.0,19,-99.99,,,-99.99,,2013-05-14 05:42:00,
2013-05-13 23:52:00,68.0,26.0,-100.00,SW,220,16.0,23.0,19,-99.99,,,-99.99,,2013-05-14 05:52:00,